Celtic Explorer — EIGB — position and weather

sailwx.info

Track history (hours):
 
Tides and Currents Weather Stations Pressure Air Temp Water Temp Dewpoint Dewpoint Depression Visibility Wind Speed Wind Dir Waves Ship Positions

Oceanographic research ship Celtic Explorer (Ireland)

Detailed information on ship capabilities available from University of Delaware's Ocean Information Center.

Last reported at 2019-Aug-24 20:31 UTC. Time now 2019-Aug-24 20:58 UTC.
Position N 56°03' E 002°52'.

Type: . MMSI: 250487000.

Date/timePositionNaut miles runAvg speedWind from/ knotsBaromVisibWave heightAir tempDewpointWater temp
2019-Aug-24 20:31N 56°03' E 002°52'612.0
2019-Aug-24 20:00N 56°07' E 002°43'611.9
2019-Aug-24 19:30N 56°10' E 002°34'611.8
2019-Aug-24 18:59N 56°14' E 002°25'611.8
2019-Aug-24 18:30N 56°17' E 002°17'611.8
2019-Aug-24 18:00N 56°20' E 002°08'611.9
2019-Aug-24 17:30N 56°24' E 001°59'612.0
2019-Aug-24 17:00N 56°27' E 001°50'612.0
2019-Aug-24 16:30N 56°31' E 001°41'612.1
2019-Aug-24 16:01N 56°34' E 001°33'612.0
2019-Aug-24 15:30N 56°38' E 001°24'612.0
2019-Aug-24 14:59N 56°41' E 001°15'612.0
2019-Aug-24 14:30N 56°45' E 001°07'611.9
2019-Aug-24 14:00N 56°49' E 000°59'611.9
2019-Aug-24 13:30N 56°53' E 000°50'611.8
2019-Aug-24 12:59N 56°57' E 000°42'13412.0
2019-Aug-24 01:48N 58°25' W 002°27'511.8
2019-Aug-24 01:20N 58°29' W 002°35'711.7
2019-Aug-24 00:46N 58°33' W 002°44'311.8
2019-Aug-24 00:30N 58°35' W 002°49'612.2
2019-Aug-24 00:00N 58°39' W 002°57'611.9
2019-Aug-23 23:30N 58°43' W 003°06'612.1
2019-Aug-23 23:01N 58°42' W 003°18'510.9
2019-Aug-23 22:30N 58°42' W 003°29'5 9.5
2019-Aug-23 22:00N 58°42' W 003°38'4 8.6
2019-Aug-23 21:30N 58°41' W 003°46'4 8.8
2019-Aug-23 21:01N 58°41' W 003°54'5 9.1
2019-Aug-23 20:31N 58°41' W 004°03'5 9.0
2019-Aug-23 20:00N 58°41' W 004°12'5 9.3
2019-Aug-23 19:30N 58°40' W 004°21'6 9.9
2019-Aug-23 18:52N 58°40' W 004°33'410.0
2019-Aug-23 18:26N 58°40' W 004°41'510.0
2019-Aug-23 17:56N 58°39' W 004°51'4 9.9
2019-Aug-23 17:30N 58°39' W 004°59'5 9.2
2019-Aug-23 17:00N 58°36' W 005°06'510.7
2019-Aug-23 16:30N 58°32' W 005°12'510.7
2019-Aug-23 16:00N 58°27' W 005°18'510.3
2019-Aug-23 15:30N 58°23' W 005°24'510.7
2019-Aug-23 15:01N 58°19' W 005°30'510.0
2019-Aug-23 14:30N 58°15' W 005°36'610.5
2019-Aug-23 13:58N 58°10' W 005°42'5 9.8
2019-Aug-23 13:29N 58°07' W 005°47'17710.5
2019-Aug-22 20:38N 55°20' W 007°34'211.0
2019-Aug-22 20:26N 55°18' W 007°35'611.0
2019-Aug-22 19:55N 55°12' W 007°34'510.5
2019-Aug-22 19:25N 55°08' W 007°30'2 2.4
2019-Aug-22 18:46N 55°06' W 007°31'710.2
2019-Aug-22 18:06N 55°13' W 007°35'510.2
2019-Aug-22 17:35N 55°18' W 007°38'211.0
2019-Aug-22 17:26N 55°18' W 007°41'911.1
2019-Aug-22 16:39N 55°21' W 007°55'211.2
2019-Aug-22 16:28N 55°22' W 007°58'79 9.3
2019-Aug-22 08:01N 54°35' W 009°49'311.0
2019-Aug-22 07:43N 54°32' W 009°52'711.1
2019-Aug-22 07:07N 54°27' W 009°59'311.2
2019-Aug-22 06:49N 54°24' W 010°02'811.7
2019-Aug-22 06:10N 54°18' W 010°10'211.6
2019-Aug-22 06:01N 54°16' W 010°11'611.3
2019-Aug-22 05:30N 54°12' W 010°17'511.2
2019-Aug-22 05:01N 54°07' W 010°22'810.3
2019-Aug-22 04:14N 53°59' W 010°24'310.4
2019-Aug-22 03:55N 53°56' W 010°24'410.5
2019-Aug-22 03:31N 53°52' W 010°24'510.5
2019-Aug-22 03:00N 53°46' W 010°24'510.5
2019-Aug-22 02:31N 53°41' W 010°24'510.5
2019-Aug-22 02:00N 53°36' W 010°23'710.5
2019-Aug-22 01:22N 53°29' W 010°21'810.5
2019-Aug-22 00:37N 53°22' W 010°17'110.2
2019-Aug-22 00:30N 53°21' W 010°16'710.1
2019-Aug-21 23:46N 53°15' W 010°08'39 9.4
2019-Aug-21 19:37N 53°16' W 009°02'1 0.0
2019-Aug-20 18:22N 53°15' W 009°03'  
2019-Aug-17 18:22N 51°20' W 010°32'7 7.7
2019-Aug-17 17:28N 51°20' W 010°21'8 7.2
2019-Aug-17 16:22N 51°19' W 010°08'4 6.9
2019-Aug-17 15:51N 51°19' W 010°02'3 7.4
2019-Aug-17 15:25N 51°20' W 009°57'4 8.5
2019-Aug-17 15:00N 51°20' W 009°52'5 8.7
2019-Aug-17 14:28N 51°20' W 009°44'7 7.8
2019-Aug-17 13:38N 51°21' W 009°34'1 8.3
2019-Aug-17 13:28N 51°21' W 009°32'5 8.5
2019-Aug-17 12:53N 51°22' W 009°24'4 8.7
2019-Aug-17 12:24N 51°22' W 009°17'7 9.2
2019-Aug-17 11:35N 51°23' W 009°05'1 9.2
2019-Aug-17 11:28N 51°23' W 009°03'5 9.3
2019-Aug-17 10:56N 51°23' W 008°56'9 9.2
2019-Aug-17 09:58N 51°23' W 008°41'1 0.7
2019-Aug-17 08:50N 51°23' W 008°40'1011.3
2019-Aug-17 07:58N 51°21' W 008°56'712.0
2019-Aug-17 07:25N 51°20' W 009°06'511.8
2019-Aug-17 06:59N 51°19' W 009°14'812.0
2019-Aug-17 06:21N 51°18' W 009°26'611.9
2019-Aug-17 05:52N 51°16' W 009°35'511.8
2019-Aug-17 05:28N 51°17' W 009°42'611.9
2019-Aug-17 05:00N 51°18' W 009°51'711.8
2019-Aug-17 04:28N 51°20' W 010°01'511.6
2019-Aug-17 04:00N 51°21' W 010°09'711.6
2019-Aug-17 03:23N 51°23' W 010°20'911.3
2019-Aug-17 02:37N 51°25' W 010°34'311.3
2019-Aug-17 02:18N 51°25' W 010°39'  
Track history (hours):
 
Tides and Currents Weather Stations Pressure Air Temp Water Temp Dewpoint Dewpoint Depression Visibility Wind Speed Wind Dir Waves Ship Positions

Oceanographic research ship Celtic Explorer (Ireland)

Detailed information on ship capabilities available from University of Delaware's Ocean Information Center.

Last reported at 2019-Aug-24 20:31 UTC. Time now 2019-Aug-24 20:58 UTC.
Position N 56°03' E 002°52'.

Type: . MMSI: 250487000.

Date/timePositionNaut miles runAvg speedWind from/ knotsBaromVisibWave heightAir tempDewpointWater temp
2019-Aug-24 20:31N 56°03' E 002°52'612.0
2019-Aug-24 20:00N 56°07' E 002°43'611.9
2019-Aug-24 19:30N 56°10' E 002°34'611.8
2019-Aug-24 18:59N 56°14' E 002°25'611.8
2019-Aug-24 18:30N 56°17' E 002°17'611.8
2019-Aug-24 18:00N 56°20' E 002°08'611.9
2019-Aug-24 17:30N 56°24' E 001°59'612.0
2019-Aug-24 17:00N 56°27' E 001°50'612.0
2019-Aug-24 16:30N 56°31' E 001°41'612.1
2019-Aug-24 16:01N 56°34' E 001°33'612.0
2019-Aug-24 15:30N 56°38' E 001°24'612.0
2019-Aug-24 14:59N 56°41' E 001°15'612.0
2019-Aug-24 14:30N 56°45' E 001°07'611.9
2019-Aug-24 14:00N 56°49' E 000°59'611.9
2019-Aug-24 13:30N 56°53' E 000°50'611.8
2019-Aug-24 12:59N 56°57' E 000°42'13412.0
2019-Aug-24 01:48N 58°25' W 002°27'511.8
2019-Aug-24 01:20N 58°29' W 002°35'711.7
2019-Aug-24 00:46N 58°33' W 002°44'311.8
2019-Aug-24 00:30N 58°35' W 002°49'612.2
2019-Aug-24 00:00N 58°39' W 002°57'611.9
2019-Aug-23 23:30N 58°43' W 003°06'612.1
2019-Aug-23 23:01N 58°42' W 003°18'510.9
2019-Aug-23 22:30N 58°42' W 003°29'5 9.5
2019-Aug-23 22:00N 58°42' W 003°38'4 8.6
2019-Aug-23 21:30N 58°41' W 003°46'4 8.8
2019-Aug-23 21:01N 58°41' W 003°54'5 9.1
2019-Aug-23 20:31N 58°41' W 004°03'5 9.0
2019-Aug-23 20:00N 58°41' W 004°12'5 9.3
2019-Aug-23 19:30N 58°40' W 004°21'6 9.9
2019-Aug-23 18:52N 58°40' W 004°33'410.0
2019-Aug-23 18:26N 58°40' W 004°41'510.0
2019-Aug-23 17:56N 58°39' W 004°51'4 9.9
2019-Aug-23 17:30N 58°39' W 004°59'5 9.2
2019-Aug-23 17:00N 58°36' W 005°06'510.7
2019-Aug-23 16:30N 58°32' W 005°12'510.7
2019-Aug-23 16:00N 58°27' W 005°18'510.3
2019-Aug-23 15:30N 58°23' W 005°24'510.7
2019-Aug-23 15:01N 58°19' W 005°30'510.0
2019-Aug-23 14:30N 58°15' W 005°36'610.5
2019-Aug-23 13:58N 58°10' W 005°42'5 9.8
2019-Aug-23 13:29N 58°07' W 005°47'17710.5
2019-Aug-22 20:38N 55°20' W 007°34'211.0
2019-Aug-22 20:26N 55°18' W 007°35'611.0
2019-Aug-22 19:55N 55°12' W 007°34'510.5
2019-Aug-22 19:25N 55°08' W 007°30'2 2.4
2019-Aug-22 18:46N 55°06' W 007°31'710.2
2019-Aug-22 18:06N 55°13' W 007°35'510.2
2019-Aug-22 17:35N 55°18' W 007°38'211.0
2019-Aug-22 17:26N 55°18' W 007°41'911.1
2019-Aug-22 16:39N 55°21' W 007°55'211.2
2019-Aug-22 16:28N 55°22' W 007°58'79 9.3
2019-Aug-22 08:01N 54°35' W 009°49'311.0
2019-Aug-22 07:43N 54°32' W 009°52'711.1
2019-Aug-22 07:07N 54°27' W 009°59'311.2
2019-Aug-22 06:49N 54°24' W 010°02'811.7
2019-Aug-22 06:10N 54°18' W 010°10'211.6
2019-Aug-22 06:01N 54°16' W 010°11'611.3
2019-Aug-22 05:30N 54°12' W 010°17'511.2
2019-Aug-22 05:01N 54°07' W 010°22'810.3
2019-Aug-22 04:14N 53°59' W 010°24'310.4
2019-Aug-22 03:55N 53°56' W 010°24'410.5
2019-Aug-22 03:31N 53°52' W 010°24'510.5
2019-Aug-22 03:00N 53°46' W 010°24'510.5
2019-Aug-22 02:31N 53°41' W 010°24'510.5
2019-Aug-22 02:00N 53°36' W 010°23'710.5
2019-Aug-22 01:22N 53°29' W 010°21'810.5
2019-Aug-22 00:37N 53°22' W 010°17'110.2
2019-Aug-22 00:30N 53°21' W 010°16'710.1
2019-Aug-21 23:46N 53°15' W 010°08'39 9.4
2019-Aug-21 19:37N 53°16' W 009°02'1 0.0
2019-Aug-20 18:22N 53°15' W 009°03'  
2019-Aug-17 18:22N 51°20' W 010°32'7 7.7
2019-Aug-17 17:28N 51°20' W 010°21'8 7.2
2019-Aug-17 16:22N 51°19' W 010°08'4 6.9
2019-Aug-17 15:51N 51°19' W 010°02'3 7.4
2019-Aug-17 15:25N 51°20' W 009°57'4 8.5
2019-Aug-17 15:00N 51°20' W 009°52'5 8.7
2019-Aug-17 14:28N 51°20' W 009°44'7 7.8
2019-Aug-17 13:38N 51°21' W 009°34'1 8.3
2019-Aug-17 13:28N 51°21' W 009°32'5 8.5
2019-Aug-17 12:53N 51°22' W 009°24'4 8.7
2019-Aug-17 12:24N 51°22' W 009°17'7 9.2
2019-Aug-17 11:35N 51°23' W 009°05'1 9.2
2019-Aug-17 11:28N 51°23' W 009°03'5 9.3
2019-Aug-17 10:56N 51°23' W 008°56'9 9.2
2019-Aug-17 09:58N 51°23' W 008°41'1 0.7
2019-Aug-17 08:50N 51°23' W 008°40'1011.3
2019-Aug-17 07:58N 51°21' W 008°56'712.0
2019-Aug-17 07:25N 51°20' W 009°06'511.8
2019-Aug-17 06:59N 51°19' W 009°14'812.0
2019-Aug-17 06:21N 51°18' W 009°26'611.9
2019-Aug-17 05:52N 51°16' W 009°35'511.8
2019-Aug-17 05:28N 51°17' W 009°42'611.9
2019-Aug-17 05:00N 51°18' W 009°51'711.8
2019-Aug-17 04:28N 51°20' W 010°01'511.6
2019-Aug-17 04:00N 51°21' W 010°09'711.6
2019-Aug-17 03:23N 51°23' W 010°20'911.3
2019-Aug-17 02:37N 51°25' W 010°34'311.3
2019-Aug-17 02:18N 51°25' W 010°39'  

Dump ship's entire track history